createdAt,value
2022-10-24T00:01:21.090Z,8.38
2022-10-24T00:02:21.094Z,8.54
2022-10-24T00:04:41.606Z,8.59
2022-10-24T00:06:58.196Z,8.59
2022-10-24T00:09:18.729Z,8.33
2022-10-24T00:11:40.853Z,8.27
2022-10-24T00:14:02.548Z,8.49
2022-10-24T00:16:20.541Z,8.33
2022-10-24T00:18:38.743Z,8.33
2022-10-24T00:21:00.298Z,8.54
2022-10-24T00:23:20.961Z,8.27
2022-10-24T00:25:40.065Z,8.27
2022-10-24T00:28:00.708Z,8.59
2022-10-24T00:30:21.247Z,8.49
2022-10-24T00:32:41.997Z,8.49
2022-10-24T00:35:02.886Z,8.54
2022-10-24T00:39:37.112Z,8.49
2022-10-24T00:41:58.171Z,8.43
2022-10-24T00:44:18.811Z,8.54
2022-10-24T00:46:37.849Z,8.54
2022-10-24T00:48:56.970Z,8.38
2022-10-24T00:51:13.489Z,8.59
2022-10-24T00:53:31.800Z,8.27
2022-10-24T00:55:48.252Z,8.27
2022-10-24T00:58:08.900Z,8.27
2022-10-24T01:00:26.004Z,8.54
2022-10-24T01:02:42.847Z,8.54
2022-10-24T01:05:03.597Z,8.38
2022-10-24T01:07:22.739Z,8.22
2022-10-24T01:09:43.266Z,8.22
2022-10-24T01:12:01.444Z,8.33
2022-10-24T01:14:18.975Z,8.54
2022-10-24T01:16:39.196Z,8.33
2022-10-24T01:18:59.788Z,8.27
2022-10-24T01:21:20.774Z,8.54
2022-10-24T01:23:37.303Z,8.27
2022-10-24T01:25:57.995Z,8.27
2022-10-24T01:28:16.042Z,8.11
2022-10-24T01:30:35.226Z,8.59
2022-10-24T01:32:55.899Z,8.38
2022-10-24T01:35:16.528Z,8.27
2022-10-24T01:37:36.919Z,8.54
2022-10-24T01:39:57.524Z,8.27
2022-10-24T01:42:18.128Z,8.33
2022-10-24T01:44:37.301Z,8.22
2022-10-24T01:46:58.371Z,8.33
2022-10-24T01:49:14.936Z,8.54
2022-10-24T01:51:36.521Z,8.27
2022-10-24T01:53:57.181Z,8.33
2022-10-24T01:56:15.734Z,8.27
2022-10-24T01:58:36.313Z,8.38
2022-10-24T02:00:56.988Z,8.33
2022-10-24T02:03:14.996Z,8.06
2022-10-24T02:05:33.109Z,8.27
2022-10-24T02:07:53.620Z,8.33
2022-10-24T02:10:14.282Z,8.16
2022-10-24T02:12:34.994Z,8.27
2022-10-24T02:14:53.556Z,8.27
2022-10-24T02:17:14.157Z,8.33
2022-10-24T02:19:34.797Z,8.27
2022-10-24T02:21:55.333Z,8.54
2022-10-24T02:24:11.940Z,8.33
2022-10-24T02:26:32.523Z,8.11
2022-10-24T02:28:53.202Z,8.11
2022-10-24T02:31:11.186Z,8.43
2022-10-24T02:33:29.354Z,8.11
2022-10-24T02:35:47.440Z,8.33
2022-10-24T02:38:06.449Z,8.33
2022-10-24T02:40:25.621Z,8.16
2022-10-24T02:42:46.156Z,8.06
2022-10-24T02:45:06.778Z,8.33
2022-10-24T02:47:23.332Z,8.33
2022-10-24T02:49:43.912Z,8.33
2022-10-24T02:52:04.598Z,8.38
2022-10-24T02:54:25.176Z,8.06
2022-10-24T02:56:43.112Z,8.11
2022-10-24T02:59:03.767Z,8.16
2022-10-24T03:01:24.587Z,8.33
2022-10-24T03:03:42.537Z,8.49
2022-10-24T03:06:03.129Z,8.06
2022-10-24T03:08:20.145Z,8.16
2022-10-24T03:10:38.179Z,8.27
2022-10-24T03:12:58.830Z,8.06
2022-10-24T03:15:19.453Z,8.16
2022-10-24T03:17:38.529Z,8.11
2022-10-24T03:19:55.027Z,8.38
2022-10-24T03:22:15.687Z,8.43
2022-10-24T03:24:43.885Z,8.11
2022-10-24T03:26:51.935Z,8.33
2022-10-24T03:29:12.515Z,8.33
2022-10-24T03:31:33.403Z,8.06
2022-10-24T03:33:52.491Z,8.06
2022-10-24T03:36:13.072Z,8.33
2022-10-24T03:38:33.604Z,8.33
2022-10-24T03:40:54.274Z,8.38
2022-10-24T03:43:14.868Z,8.33
2022-10-24T03:45:35.488Z,8.27
2022-10-24T03:47:56.148Z,8.38
2022-10-24T03:50:16.659Z,8.33
2022-10-24T03:52:37.250Z,8.06
2022-10-24T03:54:57.867Z,8.16
2022-10-24T03:57:19.289Z,8.27
2022-10-24T03:59:37.346Z,8.06
2022-10-24T04:01:57.991Z,8.22
2022-10-24T04:04:18.503Z,8.33
2022-10-24T04:06:39.117Z,8.16
2022-10-24T04:08:57.238Z,8.33
2022-10-24T04:11:17.779Z,8.06
2022-10-24T04:13:38.435Z,8.11
2022-10-24T04:15:56.542Z,8.06
2022-10-24T04:18:17.097Z,8.33
2022-10-24T04:20:38.567Z,8.11
2022-10-24T04:23:01.156Z,8.06
2022-10-24T04:25:19.779Z,8.38
2022-10-24T04:27:36.464Z,8.06
2022-10-24T04:29:57.155Z,8.06
2022-10-24T04:32:16.198Z,8.33
2022-10-24T04:34:36.777Z,8.06
2022-10-24T04:36:54.823Z,8.27
2022-10-24T04:39:12.820Z,8.27
2022-10-24T04:41:30.990Z,8.33
2022-10-24T04:43:51.681Z,8.06
2022-10-24T04:46:09.606Z,8.11
2022-10-24T04:48:30.364Z,8.06
2022-10-24T04:50:50.947Z,8.22
2022-10-24T04:53:11.523Z,8.38
2022-10-24T04:55:28.127Z,8.38
2022-10-24T04:57:45.973Z,8.06
2022-10-24T05:00:03.724Z,8.06
2022-10-24T05:02:24.580Z,8.38
2022-10-24T05:04:44.987Z,8.43
2022-10-24T05:07:06.647Z,8.33
2022-10-24T05:09:28.173Z,8.06
2022-10-24T05:11:46.294Z,8.38
2022-10-24T05:14:05.380Z,8.16
2022-10-24T05:16:21.898Z,8.11
2022-10-24T05:18:40.009Z,8.06
2022-10-24T05:21:00.690Z,8.27
2022-10-24T05:23:18.602Z,8.27
2022-10-24T05:25:38.797Z,8.33
2022-10-24T05:27:55.409Z,8.11
2022-10-24T05:30:13.475Z,8.33
2022-10-24T05:32:37.321Z,8.06
2022-10-24T05:34:54.141Z,8.38
2022-10-24T05:37:13.275Z,8.11
2022-10-24T05:39:34.332Z,8.11
2022-10-24T05:41:55.865Z,8.33
2022-10-24T05:44:16.538Z,8.33
2022-10-24T05:46:35.571Z,8.16
2022-10-24T05:48:51.909Z,8.38
2022-10-24T05:51:12.699Z,8.27
2022-10-24T05:53:33.359Z,8.06
2022-10-24T05:55:53.931Z,8.11
2022-10-24T05:58:13.039Z,8.33
2022-10-24T06:00:29.643Z,7.84
2022-10-24T06:05:01.094Z,8.06
2022-10-24T06:07:20.143Z,7.84
2022-10-24T06:09:40.766Z,8.06
2022-10-24T06:12:01.368Z,8.06
2022-10-24T06:14:17.893Z,8.06
2022-10-24T06:16:38.586Z,7.84
2022-10-24T06:18:59.078Z,7.95
2022-10-24T06:21:16.929Z,8.00
2022-10-24T06:23:32.860Z,8.16
2022-10-24T06:25:49.205Z,8.16
2022-10-24T06:30:29.913Z,8.06
2022-10-24T06:32:50.950Z,8.11
2022-10-24T06:35:11.151Z,7.95
2022-10-24T06:37:27.624Z,8.11
2022-10-24T06:39:48.294Z,7.90
2022-10-24T06:42:06.424Z,8.27
2022-10-24T06:44:26.896Z,8.06
2022-10-24T06:46:43.464Z,7.90
2022-10-24T06:49:01.629Z,7.95
2022-10-24T06:51:18.195Z,7.84
2022-10-24T06:53:34.752Z,8.16
2022-10-24T06:55:52.885Z,8.38
2022-10-24T06:58:13.487Z,8.00
2022-10-24T07:00:34.060Z,8.11
2022-10-24T07:02:51.574Z,8.16
2022-10-24T07:05:08.194Z,8.00
2022-10-24T07:07:27.315Z,8.06
2022-10-24T07:09:47.797Z,7.84
2022-10-24T07:12:08.551Z,8.00
2022-10-24T07:14:27.527Z,7.84
2022-10-24T07:16:45.930Z,7.90
2022-10-24T07:19:06.545Z,7.90
2022-10-24T07:21:24.149Z,8.11
2022-10-24T07:23:40.733Z,8.22
2022-10-24T07:25:57.222Z,8.00
2022-10-24T07:28:15.326Z,7.90
2022-10-24T07:30:31.999Z,8.00
2022-10-24T07:32:48.596Z,8.06
2022-10-24T07:33:48.591Z,8.00
2022-10-24T07:36:07.512Z,7.95
2022-10-24T07:38:29.963Z,7.90
2022-10-24T07:40:50.569Z,8.16
2022-10-24T07:43:11.650Z,7.95
2022-10-24T07:45:33.318Z,8.16
2022-10-24T07:47:49.837Z,7.90
2022-10-24T07:50:06.356Z,8.16
2022-10-24T07:52:27.011Z,8.06
2022-10-24T07:54:47.646Z,7.90
2022-10-24T07:57:05.700Z,7.90
2022-10-24T07:59:40.828Z,8.38
2022-10-24T08:01:40.518Z,8.16
2022-10-24T08:03:56.944Z,7.90
2022-10-24T08:06:17.561Z,7.90
2022-10-24T08:08:38.402Z,8.00
2022-10-24T08:10:58.886Z,7.90
2022-10-24T08:13:19.387Z,7.90
2022-10-24T08:15:40.115Z,8.06
2022-10-24T08:18:00.499Z,7.90
2022-10-24T08:20:33.249Z,8.16
2022-10-24T08:22:49.699Z,7.84
2022-10-24T08:25:10.314Z,8.00
2022-10-24T08:27:30.946Z,7.95
2022-10-24T08:29:48.834Z,7.90
2022-10-24T08:32:09.586Z,8.16
2022-10-24T08:34:30.263Z,8.22
2022-10-24T08:36:52.190Z,8.11
2022-10-24T08:39:12.719Z,8.16
2022-10-24T08:41:27.357Z,8.00
2022-10-24T08:43:47.702Z,8.00
2022-10-24T08:46:05.845Z,7.90
2022-10-24T08:48:27.291Z,8.16
2022-10-24T08:50:43.895Z,8.16
2022-10-24T08:53:03.570Z,8.11
2022-10-24T08:55:37.063Z,8.00
2022-10-24T08:56:24.724Z,7.95
2022-10-24T08:58:43.292Z,7.90
2022-10-24T09:01:01.575Z,8.16
2022-10-24T09:03:31.598Z,8.16
2022-10-24T09:04:22.497Z,7.95
2022-10-24T09:07:09.623Z,8.16
2022-10-24T09:09:27.659Z,7.95
2022-10-24T09:11:46.736Z,8.22
2022-10-24T09:14:31.375Z,7.90
2022-10-24T09:16:50.892Z,8.11
2022-10-24T09:19:11.483Z,8.06
2022-10-24T09:21:44.354Z,8.11
2022-10-24T09:24:25.459Z,8.11
2022-10-24T09:26:54.640Z,8.11
2022-10-24T09:29:14.283Z,8.06
2022-10-24T09:31:30.262Z,8.16
2022-10-24T09:34:04.173Z,8.16
2022-10-24T09:37:15.416Z,8.16
2022-10-24T09:39:35.804Z,7.90
2022-10-24T09:40:35.359Z,8.16
2022-10-24T09:43:58.715Z,7.90
2022-10-24T09:46:34.842Z,8.16
2022-10-24T09:49:23.859Z,7.95
2022-10-24T09:51:45.482Z,8.16
2022-10-24T09:54:02.069Z,7.90
2022-10-24T09:56:20.220Z,7.95
2022-10-24T09:58:40.826Z,8.16
2022-10-24T10:01:01.804Z,7.90
2022-10-24T10:03:24.347Z,7.95
2022-10-24T10:06:07.050Z,8.11
2022-10-24T10:08:28.673Z,7.90
2022-10-24T10:11:15.810Z,8.16
2022-10-24T10:13:35.121Z,7.90
2022-10-24T10:15:53.922Z,7.95
2022-10-24T10:18:13.034Z,7.90
2022-10-24T10:20:34.617Z,7.90
2022-10-24T10:22:51.431Z,7.90
2022-10-24T10:25:12.183Z,8.00
2022-10-24T10:27:29.237Z,7.90
2022-10-24T10:29:45.804Z,8.16
2022-10-24T10:32:07.502Z,7.90
2022-10-24T10:34:31.627Z,8.16
2022-10-24T10:37:19.976Z,7.95
2022-10-24T10:39:45.118Z,7.90
2022-10-24T10:42:03.277Z,8.22
2022-10-24T10:44:44.047Z,7.95
2022-10-24T10:47:04.532Z,8.16
2022-10-24T10:49:21.297Z,7.95
2022-10-24T10:51:52.024Z,8.16
2022-10-24T10:54:12.541Z,8.11
2022-10-24T10:56:32.542Z,8.11
2022-10-24T10:59:06.099Z,7.95
2022-10-24T11:01:27.353Z,8.06
2022-10-24T12:59:10.321Z,7.73
2022-10-24T13:26:49.545Z,7.95
2022-10-24T13:28:52.530Z,7.95
2022-10-24T13:31:10.501Z,7.95
2022-10-24T13:33:28.113Z,8.06
2022-10-24T13:35:46.079Z,7.68
2022-10-24T13:38:07.865Z,7.95
2022-10-24T13:40:27.309Z,7.95
2022-10-24T13:42:44.057Z,7.90
2022-10-24T13:45:07.403Z,7.90
2022-10-24T13:47:22.540Z,7.95
2022-10-24T13:49:43.164Z,7.79
2022-10-24T13:52:03.780Z,8.00
2022-10-24T13:54:21.911Z,8.00
2022-10-24T13:56:42.492Z,7.73
2022-10-24T13:59:02.970Z,7.90
2022-10-24T14:01:24.243Z,7.73
2022-10-24T14:03:44.723Z,7.68
2022-10-24T14:06:05.379Z,7.90
2022-10-24T14:08:26.648Z,7.79
2022-10-24T14:10:47.025Z,8.00
2022-10-24T14:13:07.561Z,7.73
2022-10-24T14:15:29.172Z,8.00
2022-10-24T14:17:49.789Z,7.73
2022-10-24T14:20:10.432Z,8.00
2022-10-24T14:22:31.006Z,8.00
2022-10-24T14:24:51.549Z,7.68
2022-10-24T14:27:12.216Z,7.95
2022-10-24T14:29:32.705Z,7.84
2022-10-24T14:31:53.363Z,7.79
2022-10-24T14:34:09.972Z,8.00
2022-10-24T14:36:28.032Z,8.06
2022-10-24T14:38:44.594Z,8.00
2022-10-24T14:41:09.662Z,8.06
2022-10-24T14:43:26.285Z,8.00
2022-10-24T14:45:46.936Z,7.63
2022-10-24T14:48:07.455Z,7.84
2022-10-24T14:50:28.618Z,7.63
2022-10-24T14:52:49.238Z,7.95
2022-10-24T14:55:09.804Z,7.95
2022-10-24T14:57:30.356Z,7.90
2022-10-24T14:59:50.984Z,8.00
2022-10-24T15:02:11.548Z,7.84
2022-10-24T15:04:28.093Z,7.90
2022-10-24T15:06:47.169Z,7.95
2022-10-24T15:09:05.307Z,7.73
2022-10-24T15:11:22.034Z,7.73
2022-10-24T15:13:45.206Z,7.95
2022-10-24T15:16:03.667Z,7.95
2022-10-24T15:18:25.180Z,8.06
2022-10-24T15:20:45.304Z,7.68
2022-10-24T15:23:05.854Z,7.63
2022-10-24T15:25:23.900Z,7.73
2022-10-24T15:27:44.771Z,7.90
2022-10-24T15:30:05.113Z,8.06
2022-10-24T15:32:25.675Z,7.95
2022-10-24T15:34:46.353Z,7.68
2022-10-24T15:37:06.843Z,7.84
2022-10-24T15:39:27.481Z,7.84
2022-10-24T15:41:48.195Z,8.00
2022-10-24T15:44:09.120Z,7.95
2022-10-24T15:46:29.859Z,7.79
2022-10-24T15:48:50.405Z,7.90
2022-10-24T15:51:11.441Z,8.00
2022-10-24T15:53:32.494Z,8.00
2022-10-24T15:55:53.554Z,7.73
2022-10-24T15:58:14.255Z,7.79
2022-10-24T16:00:34.862Z,7.68
2022-10-24T16:02:52.909Z,8.00
2022-10-24T16:05:09.375Z,7.84
2022-10-24T16:07:30.122Z,7.73
2022-10-24T16:09:50.811Z,7.73
2022-10-24T16:12:11.322Z,8.00
2022-10-24T16:14:31.898Z,8.11
2022-10-24T16:16:53.914Z,8.00
2022-10-24T16:19:13.170Z,7.52
2022-10-24T16:21:34.231Z,7.68
2022-10-24T16:26:10.340Z,7.84
2022-10-24T16:28:30.965Z,7.79
2022-10-24T16:30:51.572Z,7.73
2022-10-24T16:33:12.726Z,7.79
2022-10-24T16:35:33.285Z,7.68
2022-10-24T16:37:53.936Z,7.68
2022-10-24T16:40:10.986Z,8.06
2022-10-24T16:42:31.519Z,7.90
2022-10-24T16:44:48.101Z,7.95
2022-10-24T16:47:08.693Z,8.00
2022-10-24T16:49:29.354Z,7.73
2022-10-24T16:51:51.009Z,7.73
2022-10-24T16:54:11.519Z,7.73
2022-10-24T16:56:32.253Z,7.57
2022-10-24T16:58:48.856Z,8.00
2022-10-24T17:01:06.971Z,7.79
2022-10-24T17:03:27.484Z,8.00
2022-10-24T17:08:08.612Z,7.57
2022-10-24T17:10:26.916Z,7.84
2022-10-24T17:12:54.277Z,7.79
2022-10-24T17:15:10.892Z,7.84
2022-10-24T17:17:31.476Z,7.52
2022-10-24T17:19:53.325Z,7.68
2022-10-24T17:22:12.374Z,7.73
2022-10-24T17:24:30.502Z,7.90
2022-10-24T17:26:51.595Z,7.47
2022-10-24T17:29:12.198Z,7.47
2022-10-24T17:31:30.322Z,7.57
2022-10-24T17:33:50.908Z,7.52
2022-10-24T17:36:11.505Z,7.73
2022-10-24T17:38:32.585Z,7.47
2022-10-24T18:05:56.188Z,7.47
2022-10-24T19:20:48.727Z,7.63
2022-10-24T19:38:55.066Z,7.52
2022-10-24T19:41:15.875Z,7.63
2022-10-24T19:43:36.341Z,7.52
2022-10-24T19:46:07.571Z,7.30
2022-10-24T19:48:12.484Z,7.47
2022-10-24T19:50:32.983Z,7.57
2022-10-24T19:52:51.153Z,7.25
2022-10-24T19:55:11.717Z,7.79
2022-10-24T19:57:28.278Z,7.57
2022-10-24T19:59:42.812Z,7.30
2022-10-24T20:02:03.411Z,7.52
2022-10-24T20:04:24.050Z,7.79
2022-10-24T20:06:40.601Z,7.57
2022-10-24T20:09:01.305Z,7.52
2022-10-24T20:11:22.358Z,7.41
2022-10-24T20:13:43.006Z,7.47
2022-10-24T20:16:03.458Z,7.47
2022-10-24T20:18:24.204Z,7.79
2022-10-24T20:20:42.213Z,7.63
2022-10-24T20:23:00.312Z,7.52
2022-10-24T20:25:20.883Z,7.36
2022-10-24T20:27:38.946Z,7.73
2022-10-24T20:29:55.624Z,7.73
2022-10-24T20:32:16.346Z,7.79
2022-10-24T20:34:34.283Z,7.47
2022-10-24T20:36:54.779Z,7.52
2022-10-24T20:39:13.887Z,7.30
2022-10-24T20:41:32.038Z,7.36
2022-10-24T20:46:08.200Z,7.41
2022-10-24T20:48:28.774Z,7.57
2022-10-24T20:50:49.423Z,7.47
2022-10-24T20:53:10.479Z,7.25
2022-10-24T20:55:39.630Z,6.93
2022-10-24T20:56:29.533Z,7.36
2022-10-24T20:58:49.178Z,7.36
2022-10-24T21:01:07.357Z,7.79
2022-10-24T21:03:23.802Z,7.30
2022-10-24T21:05:44.460Z,7.41
2022-10-24T21:08:06.011Z,7.52
2022-10-24T21:10:22.670Z,7.79
2022-10-24T21:12:45.409Z,7.52
2022-10-24T21:15:04.071Z,7.57
2022-10-24T21:19:41.207Z,7.52
2022-10-24T21:22:01.879Z,7.79
2022-10-24T21:24:22.575Z,7.47
2022-10-24T21:26:39.055Z,7.63
2022-10-24T21:28:59.538Z,7.52
2022-10-24T21:29:56.146Z,7.57
2022-10-24T21:32:16.181Z,7.52
2022-10-24T21:34:37.707Z,7.68
2022-10-24T21:36:55.871Z,7.79
2022-10-24T21:39:16.448Z,7.79
2022-10-24T21:41:34.560Z,7.57
2022-10-24T21:43:52.667Z,7.52
2022-10-24T21:46:09.205Z,7.25
2022-10-24T21:48:29.880Z,7.41
2022-10-24T21:50:50.410Z,7.63
2022-10-24T21:53:12.007Z,7.47
2022-10-24T21:55:30.086Z,7.57
2022-10-24T21:57:48.125Z,7.52
2022-10-24T22:00:08.737Z,7.52
2022-10-24T22:02:29.351Z,7.68
2022-10-24T22:04:50.071Z,7.36
2022-10-24T22:07:10.561Z,7.52
2022-10-24T22:09:28.676Z,7.47
2022-10-24T22:11:46.707Z,7.25
2022-10-24T22:14:03.327Z,7.73
2022-10-24T22:16:23.855Z,7.47
2022-10-24T22:18:44.599Z,7.41
2022-10-24T22:21:05.132Z,7.57
2022-10-24T22:23:23.189Z,7.25
2022-10-24T22:25:43.837Z,7.47
2022-10-24T22:28:04.438Z,7.47
2022-10-24T22:30:24.916Z,7.57
2022-10-24T22:33:06.498Z,7.57
2022-10-24T22:35:05.664Z,7.57
2022-10-24T22:37:22.222Z,7.68
2022-10-24T22:39:42.825Z,7.63
2022-10-24T22:42:03.456Z,7.36
2022-10-24T22:44:21.536Z,7.30
2022-10-24T22:46:42.181Z,7.63
2022-10-24T22:49:02.699Z,7.30
2022-10-24T22:51:19.382Z,7.57
2022-10-24T22:53:35.944Z,7.57
2022-10-24T22:55:53.990Z,7.57
2022-10-24T22:58:12.331Z,7.47
2022-10-24T23:00:32.780Z,7.63
2022-10-24T23:02:49.515Z,7.63
2022-10-24T23:05:10.535Z,7.57
2022-10-24T23:07:27.791Z,7.57
2022-10-24T23:09:45.147Z,7.57
2022-10-24T23:12:01.689Z,7.30
2022-10-24T23:14:22.310Z,7.30
2022-10-24T23:16:42.939Z,7.52
2022-10-24T23:19:03.465Z,7.79
2022-10-24T23:21:20.055Z,7.30
2022-10-24T23:23:40.699Z,7.30
2022-10-24T23:26:01.363Z,7.30
2022-10-24T23:28:21.906Z,7.30
2022-10-24T23:30:39.990Z,7.30
2022-10-24T23:33:21.730Z,7.52
2022-10-24T23:35:21.198Z,7.30
2022-10-24T23:37:39.837Z,7.63
2022-10-24T23:40:00.447Z,7.36
2022-10-24T23:42:17.037Z,7.30
2022-10-24T23:44:37.616Z,7.57
2022-10-24T23:46:55.706Z,7.30
2022-10-24T23:49:12.302Z,7.47
2022-10-24T23:51:32.893Z,7.41
2022-10-24T23:53:49.503Z,7.52
2022-10-24T23:56:07.642Z,7.52
2022-10-24T23:58:28.212Z,7.63
